createdAt,value
2018-01-07T00:00:44.323Z,83.00
2018-01-07T00:03:12.476Z,83.00
2018-01-07T00:05:40.664Z,84.00
2018-01-07T00:08:08.826Z,82.00
2018-01-07T00:10:36.985Z,82.90
2018-01-07T00:13:05.917Z,82.50
2018-01-07T00:15:34.961Z,82.50
2018-01-07T00:18:04.181Z,83.10
2018-01-07T00:20:33.077Z,82.10
2018-01-07T00:23:01.247Z,82.10
2018-01-07T00:25:30.144Z,82.00
2018-01-07T00:27:58.297Z,81.90
2018-01-07T00:30:27.205Z,83.50
2018-01-07T00:32:55.369Z,83.40
2018-01-07T00:35:24.266Z,82.30
2018-01-07T00:37:53.198Z,82.70
2018-01-07T00:40:21.333Z,82.70
2018-01-07T00:42:50.257Z,81.10
2018-01-07T00:45:18.409Z,81.10
2018-01-07T00:47:46.586Z,80.80
2018-01-07T00:50:14.757Z,80.60
2018-01-07T00:52:42.909Z,80.90
2018-01-07T00:55:11.072Z,80.60
2018-01-07T00:57:39.225Z,81.60
2018-01-07T01:00:07.366Z,80.70
2018-01-07T01:02:39.410Z,80.20
2018-01-07T01:05:07.557Z,80.20
2018-01-07T01:07:35.719Z,81.60
2018-01-07T01:10:03.865Z,82.80
2018-01-07T01:12:32.784Z,80.20
2018-01-07T01:15:00.917Z,80.20
2018-01-07T01:17:29.090Z,80.90
2018-01-07T01:19:57.241Z,80.30
2018-01-07T01:22:26.168Z,80.60
2018-01-07T01:24:54.308Z,80.60
2018-01-07T01:27:22.488Z,80.40
2018-01-07T01:29:50.623Z,80.20
2018-01-07T01:32:18.772Z,80.90
2018-01-07T01:34:46.945Z,82.20
2018-01-07T01:37:15.102Z,82.00
2018-01-07T01:39:43.259Z,79.90
2018-01-07T01:42:11.439Z,80.20
2018-01-07T01:44:39.597Z,80.70
2018-01-07T01:47:08.504Z,80.40
2018-01-07T01:49:36.650Z,80.40
2018-01-07T01:52:04.952Z,79.90
2018-01-07T01:54:33.945Z,80.20
2018-01-07T01:57:02.128Z,80.20
2018-01-07T01:59:30.266Z,80.00
2018-01-07T02:01:59.190Z,81.10
2018-01-07T02:04:27.326Z,81.10
2018-01-07T02:06:56.268Z,80.40
2018-01-07T02:09:24.425Z,80.40
2018-01-07T02:11:52.588Z,81.10
2018-01-07T02:14:20.734Z,82.30
2018-01-07T02:16:49.667Z,82.00
2018-01-07T02:19:17.806Z,82.00
2018-01-07T02:21:46.718Z,81.60
2018-01-07T02:24:14.859Z,81.00
2018-01-07T02:26:43.023Z,81.80
2018-01-07T02:29:11.166Z,81.70
2018-01-07T02:31:39.330Z,82.00
2018-01-07T02:34:07.453Z,81.90
2018-01-07T02:36:35.622Z,82.30
2018-01-07T02:39:04.238Z,83.20
2018-01-07T02:41:32.418Z,82.90
2018-01-07T02:44:00.554Z,82.60
2018-01-07T02:46:28.690Z,84.00
2018-01-07T02:48:56.849Z,83.30
2018-01-07T02:51:24.997Z,81.90
2018-01-07T02:53:53.919Z,82.30
2018-01-07T02:56:22.077Z,82.30
2018-01-07T02:58:50.236Z,82.40
2018-01-07T03:01:19.137Z,81.50
2018-01-07T03:03:47.310Z,81.50
2018-01-07T03:06:15.462Z,81.80
2018-01-07T03:08:43.625Z,82.20
2018-01-07T03:11:12.543Z,81.30
2018-01-07T03:13:41.711Z,82.10
2018-01-07T03:16:09.894Z,82.00
2018-01-07T03:18:38.048Z,82.60
2018-01-07T03:21:06.191Z,82.10
2018-01-07T03:23:34.361Z,82.40
2018-01-07T03:26:02.500Z,82.60
2018-01-07T03:28:31.431Z,81.90
2018-01-07T03:30:59.586Z,81.80
2018-01-07T03:33:27.786Z,81.70
2018-01-07T03:35:55.928Z,83.00
2018-01-07T03:38:24.853Z,82.50
2018-01-07T03:40:52.986Z,82.50
2018-01-07T03:43:21.917Z,81.70
2018-01-07T03:45:50.067Z,81.60
2018-01-07T03:48:18.221Z,82.40
2018-01-07T03:50:47.121Z,82.10
2018-01-07T03:53:16.048Z,82.50
2018-01-07T03:55:44.190Z,82.50
2018-01-07T03:58:12.355Z,81.90
2018-01-07T04:00:41.257Z,82.20
2018-01-07T04:03:10.166Z,82.20
2018-01-07T04:05:38.310Z,82.20
2018-01-07T04:08:07.244Z,80.20
2018-01-07T04:10:35.387Z,80.20
2018-01-07T04:13:03.597Z,81.20
2018-01-07T04:15:31.749Z,81.30
2018-01-07T04:17:59.903Z,81.30
2018-01-07T04:20:28.804Z,80.70
2018-01-07T04:22:56.992Z,80.70
2018-01-07T04:25:25.164Z,80.90
2018-01-07T04:27:53.344Z,79.70
2018-01-07T04:30:21.497Z,79.10
2018-01-07T04:32:49.654Z,80.00
2018-01-07T04:35:18.555Z,81.50
2018-01-07T04:37:47.485Z,80.20
2018-01-07T04:40:15.619Z,80.10
2018-01-07T04:42:44.538Z,80.00
2018-01-07T04:45:12.677Z,80.00
2018-01-07T04:47:41.606Z,79.50
2018-01-07T04:50:09.751Z,79.50
2018-01-07T04:52:38.681Z,79.20
2018-01-07T04:55:06.841Z,79.20
2018-01-07T04:57:35.004Z,79.20
2018-01-07T05:00:03.598Z,79.70
2018-01-07T05:02:37.229Z,78.50
2018-01-07T05:05:05.362Z,77.90
2018-01-07T05:07:33.525Z,77.20
2018-01-07T05:10:01.678Z,77.80
2018-01-07T05:12:29.869Z,77.70
2018-01-07T05:14:58.770Z,78.70
2018-01-07T05:17:26.945Z,78.70
2018-01-07T05:19:55.081Z,79.60
2018-01-07T05:22:23.231Z,78.70
2018-01-07T05:24:51.408Z,78.10
2018-01-07T05:27:19.565Z,78.50
2018-01-07T05:29:47.711Z,79.50
2018-01-07T05:32:15.855Z,80.00
2018-01-07T05:34:44.784Z,80.30
2018-01-07T05:37:12.904Z,80.20
2018-01-07T05:39:41.092Z,78.60
2018-01-07T05:42:10.017Z,78.20
2018-01-07T05:44:38.166Z,78.00
2018-01-07T05:47:06.315Z,77.50
2018-01-07T05:49:34.455Z,77.90
2018-01-07T05:52:03.063Z,77.80
2018-01-07T05:54:31.203Z,78.70
2018-01-07T05:56:59.330Z,77.80
2018-01-07T05:59:27.464Z,77.40
2018-01-07T06:01:55.610Z,77.70
2018-01-07T06:04:23.760Z,77.70
2018-01-07T06:06:51.897Z,78.00
2018-01-07T06:09:20.071Z,78.40
2018-01-07T06:11:48.214Z,78.50
2018-01-07T06:14:16.388Z,77.60
2018-01-07T06:16:44.542Z,77.70
2018-01-07T06:19:13.458Z,80.00
2018-01-07T06:21:41.595Z,80.00
2018-01-07T06:24:10.514Z,77.80
2018-01-07T06:26:38.682Z,77.80
2018-01-07T06:29:07.612Z,77.60
2018-01-07T06:31:35.748Z,77.60
2018-01-07T06:34:04.288Z,77.50
2018-01-07T06:36:32.515Z,77.60
2018-01-07T06:40:45.769Z,77.60
2018-01-07T06:43:13.961Z,77.40
2018-01-07T06:45:42.141Z,78.00
2018-01-07T06:48:10.349Z,77.80
2018-01-07T06:50:39.301Z,76.30
2018-01-07T06:53:07.460Z,76.30
2018-01-07T06:55:35.608Z,76.70
2018-01-07T06:58:04.076Z,77.30
2018-01-07T07:00:32.284Z,77.30
2018-01-07T07:03:00.443Z,77.20
2018-01-07T07:05:28.610Z,77.80
2018-01-07T07:07:56.764Z,76.30
2018-01-07T07:10:25.735Z,76.30
2018-01-07T07:12:53.877Z,76.30
2018-01-07T07:15:22.043Z,76.20
2018-01-07T07:17:50.200Z,76.30
2018-01-07T07:20:18.365Z,76.20
2018-01-07T07:22:46.529Z,77.20
2018-01-07T07:25:15.461Z,76.20
2018-01-07T07:27:43.629Z,76.20
2018-01-07T07:30:11.820Z,75.70
2018-01-07T07:32:39.980Z,76.30
2018-01-07T07:35:08.158Z,76.30
2018-01-07T07:37:36.315Z,76.00
2018-01-07T07:40:05.259Z,76.10
2018-01-07T07:42:33.522Z,76.10
2018-01-07T07:45:01.681Z,76.40
2018-01-07T07:47:29.837Z,76.70
2018-01-07T07:49:58.050Z,77.20
2018-01-07T07:52:26.345Z,76.70
2018-01-07T07:54:55.279Z,75.30
2018-01-07T07:57:23.415Z,76.00
2018-01-07T07:59:51.575Z,75.10
2018-01-07T08:02:19.721Z,75.90
2018-01-07T08:04:47.887Z,75.90
2018-01-07T08:07:16.024Z,75.80
2018-01-07T08:09:44.954Z,76.10
2018-01-07T08:12:13.077Z,76.10
2018-01-07T08:14:41.275Z,75.60
2018-01-07T08:17:10.184Z,76.60
2018-01-07T08:19:38.344Z,76.50
2018-01-07T08:22:06.564Z,76.30
2018-01-07T08:24:34.756Z,76.60
2018-01-07T08:27:03.331Z,76.80
2018-01-07T08:29:32.394Z,76.80
2018-01-07T08:32:00.529Z,76.80
2018-01-07T08:34:29.452Z,77.10
2018-01-07T08:36:57.589Z,77.10
2018-01-07T08:39:26.510Z,76.40
2018-01-07T08:41:54.654Z,76.30
2018-01-07T08:44:23.597Z,75.20
2018-01-07T08:46:51.818Z,75.10
2018-01-07T08:49:19.972Z,75.60
2018-01-07T08:51:48.109Z,75.10
2018-01-07T08:54:16.268Z,74.40
2018-01-07T08:56:45.153Z,74.50
2018-01-07T08:59:14.061Z,74.30
2018-01-07T09:01:42.185Z,74.30
2018-01-07T09:04:10.353Z,73.70
2018-01-07T09:06:38.490Z,74.90
2018-01-07T09:09:06.638Z,74.70
2018-01-07T09:11:35.532Z,74.70
2018-01-07T09:14:04.833Z,74.20
2018-01-07T09:16:33.725Z,73.70
2018-01-07T09:19:02.637Z,73.80
2018-01-07T09:21:30.777Z,73.80
2018-01-07T09:24:00.536Z,75.20
2018-01-07T09:26:28.686Z,75.10
2018-01-07T09:28:56.856Z,74.20
2018-01-07T09:31:25.000Z,73.80
2018-01-07T09:33:53.157Z,73.50
2018-01-07T09:36:21.284Z,73.30
2018-01-07T09:38:49.456Z,73.70
2018-01-07T09:41:17.589Z,73.40
2018-01-07T09:43:45.727Z,73.90
2018-01-07T09:46:13.880Z,74.00
2018-01-07T09:48:42.033Z,73.60
2018-01-07T09:51:10.965Z,73.40
2018-01-07T09:53:39.114Z,73.40
2018-01-07T09:56:07.292Z,73.10
2018-01-07T09:58:35.468Z,72.30
2018-01-07T10:01:03.652Z,72.40
2018-01-07T10:03:31.798Z,73.40
2018-01-07T10:06:00.761Z,73.70
2018-01-07T10:08:29.043Z,73.70
2018-01-07T10:10:57.183Z,73.20
2018-01-07T10:13:25.330Z,74.20
2018-01-07T10:15:53.508Z,74.70
2018-01-07T10:18:21.675Z,73.90
2018-01-07T10:20:49.862Z,73.40
2018-01-07T10:23:18.025Z,74.30
2018-01-07T10:25:46.202Z,74.70
2018-01-07T10:28:14.368Z,74.70
2018-01-07T10:30:42.537Z,75.50
2018-01-07T10:33:11.437Z,74.80
2018-01-07T10:35:39.609Z,74.80
2018-01-07T10:38:07.783Z,74.70
2018-01-07T10:40:36.714Z,75.40
2018-01-07T10:43:04.853Z,75.40
2018-01-07T10:45:33.025Z,75.60
2018-01-07T10:48:01.208Z,75.30
2018-01-07T10:50:29.609Z,74.60
2018-01-07T10:52:58.575Z,74.60
2018-01-07T10:55:26.747Z,75.10
2018-01-07T10:57:54.890Z,73.80
2018-01-07T11:00:23.811Z,74.60
2018-01-07T11:02:51.953Z,74.60
2018-01-07T11:05:20.120Z,75.60
2018-01-07T11:07:48.316Z,76.20
2018-01-07T11:10:17.264Z,75.30
2018-01-07T11:12:45.421Z,75.30
2018-01-07T11:15:13.600Z,75.30
2018-01-07T11:17:41.740Z,75.50
2018-01-07T11:20:10.665Z,75.50
2018-01-07T11:22:38.796Z,75.60
2018-01-07T11:25:07.713Z,76.10
2018-01-07T11:27:35.836Z,76.10
2018-01-07T11:30:03.984Z,75.70
2018-01-07T11:32:32.153Z,75.10
2018-01-07T11:35:00.303Z,74.50
2018-01-07T11:37:28.440Z,74.40
2018-01-07T11:39:56.600Z,74.20
2018-01-07T11:42:24.787Z,74.40
2018-01-07T11:44:53.741Z,74.60
2018-01-07T11:47:21.868Z,74.60
2018-01-07T11:49:50.027Z,73.30
2018-01-07T11:52:18.161Z,74.00
2018-01-07T11:54:46.300Z,73.40
2018-01-07T11:57:15.207Z,73.40
2018-01-07T11:59:43.368Z,73.40
2018-01-07T12:02:12.261Z,73.10
2018-01-07T12:04:41.181Z,72.60
2018-01-07T12:07:09.316Z,72.60
2018-01-07T12:09:38.257Z,73.50
2018-01-07T12:12:06.393Z,73.50
2018-01-07T12:14:42.033Z,72.00
2018-01-07T12:17:10.163Z,71.90
2018-01-07T12:19:38.305Z,73.10
2018-01-07T12:22:06.466Z,73.10
2018-01-07T12:24:34.595Z,73.70
2018-01-07T12:27:02.744Z,73.10
2018-01-07T12:29:33.476Z,74.10
2018-01-07T12:32:01.612Z,74.00
2018-01-07T12:34:30.683Z,74.40
2018-01-07T12:36:58.841Z,74.30
2018-01-07T12:39:26.964Z,74.40
2018-01-07T12:41:55.159Z,74.60
2018-01-07T12:44:23.300Z,74.20
2018-01-07T12:46:56.083Z,74.70
2018-01-07T12:49:25.102Z,73.90
2018-01-07T12:51:53.265Z,73.90
2018-01-07T12:54:24.416Z,75.00
2018-01-07T12:56:52.744Z,75.30
2018-01-07T12:59:21.720Z,76.30
2018-01-07T13:01:50.072Z,75.70
2018-01-07T13:04:18.487Z,75.60
2018-01-07T13:06:46.736Z,75.60
2018-01-07T13:09:16.214Z,76.30
2018-01-07T13:11:45.624Z,76.60
2018-01-07T13:14:13.749Z,75.90
2018-01-07T13:16:47.269Z,75.70
2018-01-07T13:19:15.419Z,75.70
2018-01-07T13:21:43.610Z,75.30
2018-01-07T13:24:14.233Z,75.50
2018-01-07T13:26:43.444Z,75.60
2018-01-07T13:29:13.648Z,75.00
2018-01-07T13:31:42.592Z,74.60
2018-01-07T13:34:10.789Z,74.60
2018-01-07T13:36:39.922Z,75.30
2018-01-07T13:39:09.161Z,75.60
2018-01-07T13:41:37.312Z,75.60
2018-01-07T13:44:06.212Z,75.70
2018-01-07T13:46:36.767Z,75.80
2018-01-07T13:49:04.894Z,75.70
2018-01-07T13:51:35.032Z,75.80
2018-01-07T13:54:03.957Z,75.40
2018-01-07T13:56:32.465Z,75.40
2018-01-07T13:59:00.928Z,74.40
2018-01-07T14:01:29.113Z,75.60
2018-01-07T14:03:57.300Z,74.80
2018-01-07T14:06:25.421Z,74.70
2018-01-07T14:08:53.548Z,74.70
2018-01-07T14:11:21.708Z,74.40
2018-01-07T14:13:49.853Z,74.10
2018-01-07T14:16:18.005Z,74.10
2018-01-07T14:18:46.915Z,74.60
2018-01-07T14:21:15.824Z,74.50
2018-01-07T14:23:43.974Z,74.40
2018-01-07T14:26:12.868Z,74.10
2018-01-07T14:28:41.033Z,74.10
2018-01-07T14:31:09.171Z,73.40
2018-01-07T14:33:37.328Z,72.80
2018-01-07T14:36:05.474Z,73.30
2018-01-07T14:38:33.631Z,73.30
2018-01-07T14:41:01.792Z,73.80
2018-01-07T14:43:30.725Z,73.00
2018-01-07T14:45:58.855Z,73.10
2018-01-07T14:48:26.996Z,72.90
2018-01-07T14:50:55.146Z,73.30
2018-01-07T14:53:24.709Z,72.80
2018-01-07T14:55:53.643Z,73.10
2018-01-07T14:58:23.034Z,73.20
2018-01-07T15:00:51.824Z,72.80
2018-01-07T15:03:20.126Z,73.30
2018-01-07T15:05:49.654Z,72.20
2018-01-07T15:08:17.802Z,72.20
2018-01-07T15:10:46.747Z,71.50
2018-01-07T15:13:15.045Z,71.50
2018-01-07T15:15:43.248Z,72.50
2018-01-07T15:18:11.429Z,72.20
2018-01-07T15:20:40.967Z,71.90
2018-01-07T15:23:09.129Z,72.30
2018-01-07T15:25:38.129Z,72.60
2018-01-07T15:28:06.305Z,72.40
2018-01-07T15:30:34.567Z,72.60
2018-01-07T15:33:02.732Z,72.40
2018-01-07T15:35:31.081Z,73.10
2018-01-07T15:37:59.863Z,72.50
2018-01-07T15:40:28.372Z,73.30
2018-01-07T15:42:57.418Z,72.70
2018-01-07T15:45:25.641Z,73.50
2018-01-07T15:47:54.134Z,72.90
2018-01-07T15:50:22.776Z,72.20
2018-01-07T15:52:51.171Z,72.30
2018-01-07T15:55:19.328Z,71.70
2018-01-07T15:57:47.464Z,72.10
2018-01-07T16:00:15.888Z,72.20
2018-01-07T16:02:44.020Z,71.70
2018-01-07T16:05:12.173Z,72.20
2018-01-07T16:07:40.393Z,71.90
2018-01-07T16:10:09.316Z,72.20
2018-01-07T16:12:37.621Z,72.20
2018-01-07T16:15:05.774Z,71.50
2018-01-07T16:17:33.917Z,71.90
2018-01-07T16:20:02.811Z,72.40
2018-01-07T16:22:32.115Z,72.40
2018-01-07T16:25:00.312Z,72.50
2018-01-07T16:27:28.565Z,72.90
2018-01-07T16:29:56.903Z,71.30
2018-01-07T16:32:25.243Z,71.20
2018-01-07T16:34:54.792Z,72.00
2018-01-07T16:37:22.980Z,72.30
2018-01-07T16:39:51.876Z,71.40
2018-01-07T16:42:20.157Z,71.40
2018-01-07T16:44:48.471Z,72.10
2018-01-07T16:47:16.873Z,71.70
2018-01-07T16:49:45.014Z,72.10
2018-01-07T16:52:13.186Z,71.90
2018-01-07T16:54:41.331Z,71.70
2018-01-07T16:57:10.499Z,72.70
2018-01-07T16:59:39.496Z,73.00
2018-01-07T17:02:08.797Z,73.00
2018-01-07T17:04:36.989Z,73.70
2018-01-07T17:07:06.689Z,73.50
2018-01-07T17:09:35.012Z,74.40
2018-01-07T17:12:03.309Z,74.50
2018-01-07T17:14:32.377Z,74.40
2018-01-07T17:17:00.836Z,74.50
2018-01-07T17:19:29.751Z,72.30
2018-01-07T17:21:58.486Z,72.30
2018-01-07T17:24:26.618Z,72.50
2018-01-07T17:26:54.797Z,72.10
2018-01-07T17:29:22.961Z,72.30
2018-01-07T17:31:52.361Z,72.60
2018-01-07T17:34:20.510Z,72.80
2018-01-07T17:36:49.440Z,74.00
2018-01-07T17:39:17.566Z,73.30
2018-01-07T17:41:45.721Z,73.30
2018-01-07T17:44:13.861Z,74.20
2018-01-07T17:46:42.367Z,74.20
2018-01-07T17:49:11.310Z,74.40
2018-01-07T17:51:40.229Z,74.70
2018-01-07T17:54:08.830Z,74.70
2018-01-07T17:56:37.008Z,75.10
2018-01-07T17:59:05.147Z,74.70
2018-01-07T18:01:33.341Z,74.50
2018-01-07T18:04:01.489Z,74.50
2018-01-07T18:06:29.640Z,74.40
2018-01-07T18:08:57.852Z,73.60
2018-01-07T18:11:26.196Z,73.60
2018-01-07T18:13:54.513Z,74.00
2018-01-07T18:16:24.313Z,73.90
2018-01-07T18:18:58.242Z,74.00
2018-01-07T18:21:28.550Z,74.70
2018-01-07T18:23:58.519Z,74.00
2018-01-07T18:26:29.790Z,74.00
2018-01-07T18:28:58.708Z,75.00
2018-01-07T18:31:27.607Z,75.00
2018-01-07T18:33:57.125Z,74.30
2018-01-07T18:36:26.193Z,74.70
2018-01-07T18:38:56.865Z,75.30
2018-01-07T18:41:24.997Z,75.30
2018-01-07T18:43:53.373Z,74.90
2018-01-07T18:46:31.038Z,74.90
2018-01-07T18:48:59.727Z,74.90
2018-01-07T18:51:29.405Z,74.80
2018-01-07T18:53:57.611Z,74.70
2018-01-07T18:56:26.694Z,75.00
2018-01-07T18:58:55.064Z,74.90
2018-01-07T19:01:23.644Z,75.10
2018-01-07T19:03:52.319Z,74.50
2018-01-07T19:06:20.522Z,74.40
2018-01-07T19:08:49.674Z,74.10
2018-01-07T19:11:17.815Z,74.10
2018-01-07T19:13:47.997Z,74.00
2018-01-07T19:16:18.341Z,74.30
2018-01-07T19:18:47.510Z,74.10
2018-01-07T19:21:17.576Z,73.70
2018-01-07T19:23:46.764Z,73.10
2018-01-07T19:26:16.717Z,73.10
2018-01-07T19:28:45.989Z,73.10
2018-01-07T19:31:14.987Z,74.10
2018-01-07T19:33:43.910Z,74.70
2018-01-07T19:36:15.606Z,74.70
2018-01-07T19:38:44.482Z,74.70
2018-01-07T19:41:13.937Z,75.30
2018-01-07T19:43:42.116Z,75.20
2018-01-07T19:46:10.273Z,75.80
2018-01-07T19:48:42.916Z,75.00
2018-01-07T19:51:11.458Z,74.90
2018-01-07T19:53:39.930Z,74.70
2018-01-07T19:56:08.225Z,75.20
2018-01-07T19:58:36.717Z,75.90
2018-01-07T20:01:04.890Z,76.30
2018-01-07T20:03:34.964Z,76.20
2018-01-07T20:06:03.937Z,75.40
2018-01-07T20:08:32.918Z,76.10
2018-01-07T20:11:01.644Z,76.10
2018-01-07T20:13:35.765Z,75.70
2018-01-07T20:16:12.800Z,75.30
2018-01-07T20:18:47.352Z,76.00
2018-01-07T20:21:21.156Z,75.50
2018-01-07T20:23:55.022Z,75.10
2018-01-07T20:26:29.941Z,74.10
2018-01-07T20:29:03.861Z,74.10
2018-01-07T20:31:37.745Z,73.80
2018-01-07T20:34:11.488Z,74.50
2018-01-07T20:36:46.223Z,75.70
2018-01-07T20:39:20.854Z,75.60
2018-01-07T20:41:48.998Z,75.60
2018-01-07T20:44:17.163Z,76.80
2018-01-07T20:46:46.135Z,76.20
2018-01-07T20:49:14.296Z,76.20
2018-01-07T20:51:42.504Z,77.60
2018-01-07T20:54:10.710Z,77.50
2018-01-07T20:56:38.865Z,77.00
2018-01-07T20:59:07.026Z,77.70
2018-01-07T21:01:35.514Z,77.90
2018-01-07T21:04:04.017Z,77.90
2018-01-07T21:06:33.388Z,78.20
2018-01-07T21:09:01.921Z,78.10
2018-01-07T21:11:30.666Z,78.70
2018-01-07T21:13:58.983Z,79.40
2018-01-07T21:16:27.149Z,80.10
2018-01-07T21:18:55.330Z,80.70
2018-01-07T21:21:23.568Z,80.40
2018-01-07T21:23:51.749Z,80.10
2018-01-07T21:26:20.716Z,80.10
2018-01-07T21:28:49.630Z,81.30
2018-01-07T21:31:17.792Z,80.60
2018-01-07T21:33:45.996Z,80.40
2018-01-07T21:36:14.226Z,80.40
2018-01-07T21:38:43.066Z,79.80
2018-01-07T21:41:12.040Z,79.90
2018-01-07T21:43:40.423Z,79.90
2018-01-07T21:46:08.650Z,80.50
2018-01-07T21:48:36.837Z,81.20
2018-01-07T21:51:05.956Z,81.10
2018-01-07T21:53:34.146Z,81.30
2018-01-07T21:56:02.774Z,80.60
2018-01-07T21:58:31.133Z,80.50
2018-01-07T22:01:11.333Z,80.70
2018-01-07T22:03:51.329Z,81.10
2018-01-07T22:06:31.387Z,81.60
2018-01-07T22:08:59.553Z,81.80
2018-01-07T22:11:27.717Z,81.60
2018-01-07T22:13:56.702Z,81.50
2018-01-07T22:16:24.857Z,81.40
2018-01-07T22:18:53.726Z,81.20
2018-01-07T22:21:23.048Z,81.90
2018-01-07T22:27:08.606Z,81.50
2018-01-07T22:29:36.752Z,81.30
2018-01-07T22:32:06.193Z,81.40
2018-01-07T22:34:34.336Z,80.30
2018-01-07T22:37:03.570Z,79.60
2018-01-07T22:39:31.700Z,79.50
2018-01-07T22:41:59.868Z,78.90
2018-01-07T22:44:27.998Z,78.90
2018-01-07T22:46:56.115Z,79.20
2018-01-07T22:49:24.256Z,79.60
2018-01-07T22:51:53.136Z,78.40
2018-01-07T22:54:21.277Z,79.00
2018-01-07T22:56:49.375Z,79.20
2018-01-07T22:59:17.509Z,79.30
2018-01-07T23:01:45.613Z,78.70
2018-01-07T23:04:13.744Z,79.30
2018-01-07T23:06:41.879Z,79.40
2018-01-07T23:09:09.996Z,79.60
2018-01-07T23:11:38.123Z,79.10
2018-01-07T23:14:06.241Z,79.20
2018-01-07T23:16:34.350Z,79.60
2018-01-07T23:19:02.894Z,79.30
2018-01-07T23:21:31.055Z,79.10
2018-01-07T23:23:59.206Z,79.10
2018-01-07T23:26:28.091Z,78.60
2018-01-07T23:28:56.993Z,79.50
2018-01-07T23:31:25.121Z,79.00
2018-01-07T23:33:53.259Z,78.90
2018-01-07T23:36:22.131Z,79.10
2018-01-07T23:38:50.252Z,79.00
2018-01-07T23:41:18.367Z,79.60
2018-01-07T23:43:46.514Z,78.90
2018-01-07T23:46:14.629Z,78.60
2018-01-07T23:48:43.544Z,78.30
2018-01-07T23:51:12.415Z,79.10
2018-01-07T23:53:41.308Z,78.50
2018-01-07T23:56:10.193Z,78.50
2018-01-07T23:58:39.099Z,78.50
